Flight Track Log - Related Links

Times and Time Zones

All times are in EDT time to prevent confusion due to time zone crossing. See the N53NW flight status page for this flight to view local times or setup timezone preferences in your user account.

Time Position Orientation Groundspeed Altitude Reporting Facility
EDT Latitude Longitude Course Direction KTS MPH feet Rate Location/Type
Wed 06:41:17 PM 30.4639 -85.6639 339° North 404 465 9,500  Level Jacksonville Center
Wed 06:42:17 PM 30.5467 -85.7003 339° North 337 388 12,500 2,750 Climbing Jacksonville Center
Wed 06:43:17 PM 30.6192 -85.7314 340° North 300 345 15,000 2,300 Climbing Jacksonville Center
Wed 06:44:17 PM 30.6914 -85.7600 North 281 323 17,100 2,000 Climbing Jacksonville Center
Wed 06:45:17 PM 30.7594 -85.7958 336° Northwest 275 316 19,000 1,950 Climbing Jacksonville Center
Wed 06:46:17 PM 30.7806 -85.8789 287° West 249 287 21,000 1,950 Climbing Jacksonville Center
Wed 06:47:17 PM 30.7869 -85.9611 275° West 244 281 22,900 1,700 Climbing Jacksonville Center
Wed 06:48:17 PM 30.7972 -86.0511 278° West 262 302 24,400 1,500 Climbing Jacksonville Center
Wed 06:49:17 PM 30.8033 -86.1456 274° West 285 328 25,900 1,500 Climbing Jacksonville Center
Wed 06:50:17 PM 30.8133 -86.2378 277° West 292 336 27,400 1,500 Climbing Jacksonville Center
Wed 06:51:17 PM 30.8236 -86.3300 277° West 292 336 28,900 1,500 Climbing Jacksonville Center
Wed 06:52:17 PM 30.8314 -86.4269 275° West 292 336 30,400 1,500 Climbing Jacksonville Center
Wed 06:53:17 PM 30.8411 -86.5242 277° West 292 336 31,900 1,350 Climbing Jacksonville Center
Wed 06:54:17 PM 30.8528 -86.6239 278° West 302 348 33,100 1,150 Climbing Jacksonville Center
Wed 06:55:17 PM 30.8625 -86.7161 277° West 312 359 34,200 1,150 Climbing Jacksonville Center
Wed 06:56:17 PM 30.8719 -86.8158 276° West 317 365 35,400 1,200 Climbing Jacksonville Center
Wed 06:57:17 PM 30.8772 -86.9200 273° West 317 365 36,600 1,200 Climbing Jacksonville Center
Wed 06:58:17 PM 30.8864 -87.0219 276° West 317 365 37,800 1,125 Climbing Jacksonville Center
Wed 06:59:57 PM 30.9033 -87.1978 276° West 318 366 39,600 815 Climbing Houston Center
Wed 07:00:59 PM 30.9114 -87.3019 275° West 323 372 40,000 194 Climbing Houston Center
Wed 07:02:01 PM 30.9208 -87.4133 276° West 343 395 40,000  Level Houston Center
Wed 07:03:03 PM 30.9306 -87.5294 276° West 358 412 40,000  Level Houston Center
Wed 07:04:05 PM 30.9403 -87.6417 276° West 351 404 40,000  Level Houston Center
Wed 07:05:07 PM 30.9508 -87.7667 276° West 350 403 40,000  Level Houston Center
Wed 07:06:09 PM 30.9594 -87.8797 275° West 350 403 40,000  Level Houston Center
Wed 07:07:11 PM 30.9689 -87.9928 276° West 351 404 40,000  Level Houston Center
Wed 07:08:13 PM 30.9783 -88.1278 275° West 350 403 40,000  Level Houston Center
Wed 07:09:15 PM 30.9894 -88.2428 276° West 358 412 40,000  Level Houston Center
Wed 07:10:17 PM 30.9972 -88.3550 275° West 361 415 40,000  Level Houston Center
Wed 07:11:19 PM 31.0078 -88.4725 276° West 367 422 40,000  Level Houston Center
Wed 07:12:21 PM 31.0153 -88.5850 274° West 352 405 40,000  Level Houston Center
Wed 07:13:23 PM 31.0239 -88.6961 275° West 348 400 40,000  Level Houston Center
Wed 07:14:25 PM 31.0333 -88.8339 275° West 353 406 40,000  Level Houston Center
Wed 07:15:27 PM 31.0414 -88.9481 275° West 353 406 40,000  Level Houston Center
Wed 07:16:29 PM 31.0536 -89.0586 277° West 350 403 40,000  Level Houston Center
Wed 07:17:31 PM 31.0614 -89.1708 275° West 350 403 40,000  Level Houston Center
Wed 07:18:33 PM 31.0686 -89.2844 274° West 351 404 40,000  Level Houston Center
Wed 07:19:35 PM 31.0764 -89.3967 275° West 350 403 40,000  Level Houston Center
Wed 07:20:37 PM 31.0861 -89.5322 275° West 351 404 40,000  Level Houston Center
Wed 07:21:39 PM 31.0947 -89.6439 275° West 350 403 40,000  Level Houston Center
Wed 07:22:41 PM 31.1017 -89.7567 274° West 349 402 40,000  Level Houston Center
Wed 07:23:43 PM 31.1083 -89.8683 274° West 348 400 40,000  Level Houston Center
Wed 07:24:45 PM 31.1158 -89.9792 275° West 345 397 40,000  Level Houston Center
Wed 07:25:47 PM 31.1253 -90.1131 275° West 346 398 40,000  Level Houston Center
Wed 07:26:49 PM 31.1317 -90.2256 274° West 348 400 40,000  Level Houston Center
Wed 07:27:51 PM 31.1386 -90.3383 274° West 350 403 40,000  Level Houston Center
Wed 07:28:54 PM 31.1458 -90.4519 274° West 352 405 40,000  Level Houston Center
Wed 07:29:56 PM 31.1522 -90.5650 274° West 351 404 40,000  Level Houston Center
Wed 07:30:58 PM 31.1617 -90.7006 275° West 351 404 40,000  Level Houston Center
Wed 07:32:00 PM 31.1675 -90.8147 273° West 353 406 40,000  Level Houston Center
Wed 07:33:02 PM 31.1742 -90.9272 274° West 351 404 40,000  Level Houston Center
Wed 07:34:04 PM 31.1800 -91.0411 273° West 352 405 40,000  Level Houston Center
Wed 07:35:06 PM 31.1961 -91.1522 280° West 349 402 40,000  Level Houston Center
Wed 07:36:08 PM 31.2225 -91.2628 286° West 353 406 40,000  Level Houston Center
Wed 07:37:10 PM 31.2514 -91.3964 284° West 355 409 40,000  Level Houston Center
Wed 07:38:11 PM 31.2739 -91.5008 284° West 350 403 40,000  Level Houston Center
Wed 07:39:13 PM 31.2969 -91.6106 284° West 349 402 40,000  Level Houston Center
Wed 07:40:15 PM 31.3200 -91.7203 284° West 348 400 40,000  Level Houston Center
Wed 07:41:17 PM 31.3442 -91.8297 285° West 349 402 40,000  Level Houston Center
Wed 07:42:19 PM 31.3717 -91.9619 284° West 349 402 40,000  Level Houston Center
Wed 07:43:21 PM 31.3919 -92.0639 283° West 354 407 40,000  Level Houston Center
Wed 07:44:23 PM 31.4158 -92.1747 284° West 353 406 40,000  Level Houston Center
Wed 07:45:25 PM 31.4436 -92.3069 284° West 352 405 40,000  Level Houston Center
Wed 07:46:27 PM 31.4672 -92.4181 284° West 353 406 40,000  Level Houston Center
Wed 07:47:29 PM 31.4911 -92.5294 284° West 355 409 40,000  Level Houston Center
Wed 07:48:31 PM 31.5133 -92.6414 283° West 354 407 40,000  Level Houston Center
Wed 07:49:33 PM 31.5367 -92.7522 284° West 351 404 40,000  Level Houston Center
Wed 07:50:35 PM 31.5583 -92.8625 283° West 349 402 40,000  Level Houston Center
Wed 07:51:37 PM 31.5853 -92.9942 284° West 348 400 40,000  Level Houston Center
Wed 07:52:39 PM 31.6072 -93.1058 283° West 350 403 40,000  Level Houston Center
Wed 07:53:40 PM 31.6294 -93.2150 283° West 348 400 40,000  Level Houston Center
Wed 07:54:42 PM 31.6514 -93.3294 283° West 348 400 40,000  Level Houston Center
Wed 07:55:44 PM 31.6742 -93.4392 284° West 347 399 40,000  Level Houston Center
Wed 07:56:46 PM 31.6956 -93.5494 283° West 348 400 40,000  Level Houston Center
Wed 07:57:48 PM 31.7214 -93.6792 283° West 349 402 40,000  Level Houston Center
Wed 07:58:50 PM 31.7431 -93.7900 283° West 349 402 40,000  Level Houston Center
Wed 07:59:52 PM 31.7650 -93.8992 283° West 345 397 40,000  Level Houston Center
Wed 08:00:54 PM 31.7861 -94.0103 283° West 347 399 40,000  Level Houston Center
Wed 08:01:56 PM 31.8089 -94.1233 283° West 346 398 40,000  Level Houston Center
Wed 08:02:57 PM 31.8297 -94.2294 283° West 346 398 40,000  Level Houston Center
Wed 08:03:59 PM 31.8553 -94.3617 283° West 346 398 40,000  Level Houston Center
Wed 08:05:01 PM 31.8767 -94.4722 283° West 348 400 40,000  Level Houston Center
Wed 08:05:38 PM 31.8928 -94.5481 284° West 350 403 40,000 -433 Level Fort Worth Center
Wed 08:06:38 PM 31.9139 -94.6600 283° West 350 403 39,300 -1,300 Descending Fort Worth Center
Wed 08:07:38 PM 31.9331 -94.7697 282° West 350 403 37,400 -1,900 Descending Fort Worth Center
Wed 08:08:38 PM 31.9539 -94.8719 284° West 355 409 35,500 -1,900 Descending Fort Worth Center
Wed 08:09:38 PM 31.9769 -94.9839 284° West 355 409 33,600 -1,900 Descending Fort Worth Center
Wed 08:10:38 PM 31.9958 -95.0961 281° West 355 409 31,700 -1,900 Descending Fort Worth Center
Wed 08:11:38 PM 32.0167 -95.2083 282° West 355 409 29,800 -1,900 Descending Fort Worth Center
Wed 08:12:38 PM 32.0414 -95.3203 285° West 349 402 27,900 -1,900 Descending Fort Worth Center
Wed 08:13:38 PM 32.0933 -95.4197 302° West 349 402 26,000 -1,900 Descending Fort Worth Center
Wed 08:14:38 PM 32.1428 -95.5217 300° West 354 407 24,100 -1,700 Descending Fort Worth Center
Wed 08:15:38 PM 32.1967 -95.6336 300° West 354 407 22,600 -1,900 Descending Fort Worth Center
Wed 08:16:38 PM 32.2394 -95.7089 304° West 342 394 20,300 -2,100 Descending Fort Worth Center
Wed 08:17:38 PM 32.2886 -95.7989 303° West 330 380 18,400 -1,750 Descending Fort Worth Center
Wed 08:18:38 PM 32.3314 -95.8867 300° West 320 368 16,800 -1,750 Descending Fort Worth Center
Wed 08:19:38 PM 32.3806 -95.9817 302° West 309 356 14,900 -1,750 Descending Fort Worth Center
Wed 08:20:38 PM 32.4211 -96.0572 302° West 309 356 13,300 -1,650 Descending Fort Worth Center
Wed 08:21:38 PM 32.4681 -96.1478 302° West 297 342 11,600 -1,550 Descending Fort Worth Center
Wed 08:22:38 PM 32.5042 -96.2186 301° West 282 325 10,200 -1,300 Descending Fort Worth Center
Wed 08:23:38 PM 32.5406 -96.3044 297° West 270 311 9,000 -950 Descending Fort Worth Center
Wed 08:24:38 PM 32.5639 -96.3756 291° West 259 298 8,300 -1,300 Descending Fort Worth Center
Wed 08:25:38 PM 32.5939 -96.4567 294° West 249 287 6,400 -1,550 Descending Fort Worth Center
Wed 08:26:38 PM 32.6131 -96.5181 290° West 231 266 5,200 -1,200 Descending Fort Worth Center
Wed 08:27:38 PM 32.6364 -96.5797 294° West 200 230 4,000 -1,158 Descending Fort Worth Center
Wed 08:28:32 PM 32.6500 -96.6333 287° West 190 219 3,000 -526 Descending Dallas / Fort Worth TRACON
Wed 08:29:32 PM 32.6833 -96.6667 320° Northwest 182 209 3,000 -350 Level Dallas / Fort Worth TRACON
Wed 08:30:32 PM 32.7167 -96.7167 308° West 177 204 2,300 -400 Descending Dallas / Fort Worth TRACON
Wed 08:31:32 PM 32.7500 -96.7500 320° Northwest 134 154 2,200 -100 Descending Dallas / Fort Worth TRACON
Wed 08:32:32 PM 32.7833 -96.7833 320° Northwest 134 154 2,100 -400 Descending Dallas / Fort Worth TRACON
Wed 08:33:32 PM 32.8000 -96.8000 320° Northwest 110 127 1,400 -600 Descending Dallas / Fort Worth TRACON
Wed 08:34:32 PM 32.8167 -96.8333 301° West 110 127 900 -500 Descending Dallas / Fort Worth TRACON
Wed 08:36:00 PM 32.8333 -96.8500 301° West  Level FlightAware Approximate
Wed 08:43:00 PM 32.8471 -96.8518 301° West  Level Estimated
Wed 08:44:00 PM 32.8471 -96.8518 301° West  Level Estimated

Login

Don't have an account? Register now (free) for customized features, flight alerts, and more!